Time;durP1;ratioP1;P1;durP2;ratioP2;P2;SDS_P1;SDS_P2;PMS_P1;PMS_P2;Temp;Humidity;BMP_temperature;BMP_pressure;BME280_temperature;BME280_humidity;BME280_pressure;Samples;Min_cycle;Max_cycle;Signal;HPM_P1;HPM_P2
2023/07/20 00:01:50;;;;;;;1.67;0.80;;;17.40;99.90;;;;;;5000286;28;20046;-74
2023/07/20 00:04:37;;;;;;;1.63;0.90;;;17.50;99.90;;;;;;4999009;28;20544;-74
2023/07/20 00:07:24;;;;;;;2.30;1.10;;;17.50;99.90;;;;;;4986450;28;20038;-74
2023/07/20 00:10:11;;;;;;;2.55;1.10;;;17.50;99.90;;;;;;5000113;28;20049;-77
2023/07/20 00:12:57;;;;;;;2.95;0.95;;;17.40;99.90;;;;;;4987640;28;20041;-77
2023/07/20 00:15:43;;;;;;;1.85;0.90;;;17.40;99.90;;;;;;4989020;28;20052;-78
2023/07/20 00:18:29;;;;;;;1.45;0.98;;;17.40;99.90;;;;;;4988182;28;20038;-77
2023/07/20 00:21:15;;;;;;;2.17;0.90;;;17.40;99.90;;;;;;4980554;28;20042;-77
2023/07/20 00:24:01;;;;;;;1.75;1.00;;;17.30;99.90;;;;;;4999735;28;20033;-78
2023/07/20 00:26:47;;;;;;;2.75;1.13;;;17.10;99.90;;;;;;4967680;28;20073;-77
2023/07/20 00:29:33;;;;;;;2.28;1.15;;;17.00;99.90;;;;;;4989693;28;20046;-77
2023/07/20 00:32:19;;;;;;;1.88;1.20;;;17.00;99.90;;;;;;4987120;28;20054;-77
2023/07/20 00:35:05;;;;;;;1.50;0.90;;;16.90;99.90;;;;;;4991229;28;20049;-77
2023/07/20 00:37:51;;;;;;;1.80;1.00;;;16.90;99.90;;;;;;4999188;28;20049;-77
2023/07/20 00:40:38;;;;;;;2.03;1.10;;;17.00;99.90;;;;;;4987948;28;20049;-77
2023/07/20 00:43:24;;;;;;;1.75;1.15;;;16.90;99.90;;;;;;4982244;28;20046;-77
2023/07/20 00:46:10;;;;;;;3.17;1.42;;;16.90;99.90;;;;;;4974906;28;20040;-77
2023/07/20 00:48:56;;;;;;;3.75;1.30;;;17.00;99.90;;;;;;4988450;28;20108;-77
2023/07/20 00:51:42;;;;;;;3.45;1.30;;;17.00;99.90;;;;;;4976215;28;20088;-77
2023/07/20 00:54:28;;;;;;;3.65;1.75;;;16.90;99.90;;;;;;4973563;28;20697;-77
2023/07/20 00:57:14;;;;;;;2.13;1.40;;;16.80;99.90;;;;;;4987542;28;20061;-78
2023/07/20 01:00:00;;;;;;;2.83;1.60;;;16.80;99.90;;;;;;5000879;28;20433;-77
2023/07/20 01:02:46;;;;;;;4.03;1.45;;;16.90;99.90;;;;;;4977168;28;20046;-78
2023/07/20 01:06:11;;;;;;;2.10;1.55;;;16.80;99.90;;;;;;5001353;28;20061;-77
2023/07/20 01:09:01;;;;;;;3.10;1.50;;;16.80;99.90;;;;;;5001680;28;20045;-77
2023/07/20 01:11:53;;;;;;;3.13;1.50;;;16.80;99.90;;;;;;4982883;28;20045;-77
2023/07/20 01:14:39;;;;;;;2.00;1.20;;;16.80;99.90;;;;;;5013325;28;20095;-77
2023/07/20 01:17:25;;;;;;;2.55;1.30;;;16.80;99.90;;;;;;4987199;28;20041;-77
2023/07/20 01:20:13;;;;;;;1.98;1.00;;;16.80;99.90;;;;;;4987088;28;20048;-77
2023/07/20 01:23:05;;;;;;;3.70;1.40;;;16.80;99.90;;;;;;4967345;28;20101;-78
2023/07/20 01:26:13;;;;;;;2.47;1.40;;;16.70;99.90;;;;;;5002770;28;20034;-78
2023/07/20 01:29:18;;;;;;;2.38;1.30;;;16.60;99.90;;;;;;5019128;28;20048;-78
2023/07/20 01:32:06;;;;;;;2.22;1.20;;;16.60;99.90;;;;;;5014282;28;20374;-77
2023/07/20 01:34:52;;;;;;;;;;;16.60;99.90;;;;;;4988683;28;20121;-77
2023/07/20 01:37:38;;;;;;;2.75;1.17;;;16.60;99.90;;;;;;5000604;28;19913;-78
2023/07/20 01:40:25;;;;;;;2.08;1.20;;;16.50;99.90;;;;;;4967562;28;20046;-78
2023/07/20 01:43:11;;;;;;;3.35;1.83;;;16.50;99.90;;;;;;4991204;28;20073;-78
2023/07/20 01:45:57;;;;;;;4.28;1.08;;;16.50;99.90;;;;;;4986147;28;20081;-77
2023/07/20 01:48:43;;;;;;;1.52;0.88;;;16.50;99.90;;;;;;4975028;28;20478;-77
2023/07/20 01:51:29;;;;;;;2.42;1.10;;;16.60;99.90;;;;;;4985562;28;20124;-77
2023/07/20 01:54:15;;;;;;;1.70;1.00;;;16.60;99.90;;;;;;4980300;28;20515;-77
2023/07/20 01:57:01;;;;;;;1.52;1.00;;;16.60;99.90;;;;;;4980865;28;20046;-78
2023/07/20 01:59:47;;;;;;;2.72;1.10;;;16.60;99.90;;;;;;4989600;28;20120;-77
2023/07/20 02:02:33;;;;;;;4.10;1.02;;;16.60;99.90;;;;;;4998738;28;20116;-77
2023/07/20 02:05:19;;;;;;;6.25;1.20;;;16.60;99.90;;;;;;4997745;28;20046;-78
2023/07/20 02:08:05;;;;;;;2.97;1.48;;;16.60;99.90;;;;;;4973135;28;20420;-77
2023/07/20 02:10:51;;;;;;;2.55;0.90;;;16.50;99.90;;;;;;4996497;28;20052;-78
2023/07/20 02:13:37;;;;;;;1.33;0.80;;;16.50;99.90;;;;;;4986811;28;20045;-77
2023/07/20 02:16:23;;;;;;;2.45;0.80;;;16.60;99.90;;;;;;4973003;28;20700;-77
2023/07/20 02:19:11;;;;;;;2.30;0.80;;;16.50;99.90;;;;;;4999704;28;20038;-77
2023/07/20 02:21:58;;;;;;;1.52;1.10;;;16.50;99.90;;;;;;4987054;28;20056;-78
2023/07/20 02:24:44;;;;;;;4.25;1.20;;;16.50;99.90;;;;;;4974874;28;20474;-77
2023/07/20 02:27:30;;;;;;;3.50;1.00;;;16.50;99.90;;;;;;4999282;28;20053;-78
2023/07/20 02:30:17;;;;;;;2.30;1.27;;;16.50;99.90;;;;;;4986321;28;20045;-78
2023/07/20 02:33:05;;;;;;;2.10;1.05;;;16.50;99.90;;;;;;4999865;28;20542;-78
2023/07/20 02:35:51;;;;;;;1.85;1.00;;;16.50;99.90;;;;;;4991041;28;20056;-78
2023/07/20 02:38:37;;;;;;;1.58;1.10;;;16.50;99.90;;;;;;5000341;28;20751;-78
2023/07/20 02:41:23;;;;;;;2.00;1.27;;;16.50;99.90;;;;;;4986989;28;20040;-77
2023/07/20 02:44:08;;;;;;;1.95;1.30;;;16.50;99.90;;;;;;4987399;28;20157;-78
2023/07/20 02:46:54;;;;;;;2.08;1.05;;;16.50;99.90;;;;;;4998884;28;20056;-78
2023/07/20 02:49:40;;;;;;;2.35;0.93;;;16.40;99.90;;;;;;4993094;28;20049;-79
2023/07/20 02:52:26;;;;;;;2.17;0.90;;;16.40;99.90;;;;;;4966348;28;20690;-79
2023/07/20 02:55:12;;;;;;;3.28;1.00;;;16.40;99.90;;;;;;4992973;28;20034;-79
2023/07/20 02:57:58;;;;;;;3.17;1.10;;;16.30;99.90;;;;;;4999623;28;20069;-78
2023/07/20 03:00:45;;;;;;;2.28;1.10;;;16.30;99.90;;;;;;4999264;28;20131;-78
2023/07/20 03:03:31;;;;;;;3.25;1.40;;;16.30;99.90;;;;;;5015683;28;20466;-78
2023/07/20 03:06:17;;;;;;;3.03;1.15;;;16.30;99.90;;;;;;4990318;28;20072;-77
2023/07/20 03:09:06;;;;;;;2.90;1.20;;;16.30;99.90;;;;;;5000555;28;20545;-77
2023/07/20 03:11:52;;;;;;;2.63;1.20;;;16.30;99.90;;;;;;4990405;28;20045;-77
2023/07/20 03:14:38;;;;;;;2.63;1.23;;;16.30;99.90;;;;;;4970742;28;20479;-78
2023/07/20 03:17:24;;;;;;;3.00;1.60;;;16.30;99.90;;;;;;4995925;28;20053;-77
2023/07/20 03:20:12;;;;;;;2.20;1.45;;;16.30;99.90;;;;;;4983271;28;20038;-77
2023/07/20 03:22:58;;;;;;;;;;;16.30;99.90;;;;;;4976245;28;20065;-77
2023/07/20 03:25:44;;;;;;;2.53;1.67;;;16.30;99.90;;;;;;5017146;28;19917;-78
2023/07/20 03:28:30;;;;;;;2.97;1.50;;;16.20;99.90;;;;;;4999234;28;20371;-78
2023/07/20 03:31:16;;;;;;;2.67;1.70;;;16.20;99.90;;;;;;5002751;28;20041;-77
2023/07/20 03:34:02;;;;;;;5.40;2.22;;;16.30;99.90;;;;;;4990234;28;20037;-78
2023/07/20 03:36:48;;;;;;;6.85;1.90;;;16.30;99.90;;;;;;4988516;28;20518;-77
2023/07/20 03:39:34;;;;;;;2.47;1.65;;;16.30;99.90;;;;;;5001132;28;20042;-78
2023/07/20 03:42:20;;;;;;;3.05;1.48;;;16.30;99.90;;;;;;5001976;28;20120;-77
2023/07/20 03:45:06;;;;;;;2.30;1.38;;;16.20;99.90;;;;;;4988965;28;20441;-77
2023/07/20 03:47:52;;;;;;;2.80;1.55;;;16.20;99.90;;;;;;5002384;28;20053;-78
2023/07/20 03:50:38;;;;;;;2.47;1.30;;;16.30;99.90;;;;;;4989214;28;20112;-78
2023/07/20 03:53:24;;;;;;;4.85;1.25;;;16.30;99.90;;;;;;4997562;28;20080;-77
2023/07/20 03:56:10;;;;;;;2.65;1.35;;;16.20;99.90;;;;;;5001468;28;20046;-77
2023/07/20 03:58:56;;;;;;;2.28;1.10;;;16.30;99.90;;;;;;4982087;28;20034;-77
2023/07/20 04:01:42;;;;;;;1.80;1.10;;;16.30;99.90;;;;;;4996961;28;20399;-77
2023/07/20 04:04:28;;;;;;;1.73;0.90;;;16.30;99.90;;;;;;5001210;28;20125;-77
2023/07/20 04:07:15;;;;;;;1.33;1.00;;;16.30;99.90;;;;;;5001637;28;20034;-77
2023/07/20 04:10:01;;;;;;;3.90;0.90;;;16.30;99.90;;;;;;4981479;28;20505;-77
2023/07/20 04:12:47;;;;;;;2.55;0.90;;;16.30;99.90;;;;;;5000372;28;20125;-77
2023/07/20 04:15:33;;;;;;;1.80;1.00;;;16.30;99.90;;;;;;5014623;28;20560;-77
2023/07/20 04:18:19;;;;;;;2.10;1.08;;;16.30;99.90;;;;;;4987677;28;20046;-78
2023/07/20 04:21:07;;;;;;;1.05;0.90;;;16.30;99.90;;;;;;4982327;28;20053;-77
2023/07/20 04:23:53;;;;;;;3.28;1.00;;;16.30;99.90;;;;;;4983922;28;20041;-78
2023/07/20 04:26:39;;;;;;;3.00;1.27;;;16.40;99.90;;;;;;4999582;28;20157;-77
2023/07/20 04:29:25;;;;;;;3.08;1.00;;;16.40;99.90;;;;;;4988570;28;20125;-77
2023/07/20 04:32:11;;;;;;;2.40;1.00;;;16.40;99.90;;;;;;5001365;28;20620;-78
2023/07/20 04:34:57;;;;;;;4.30;1.10;;;16.40;99.90;;;;;;4989506;28;20041;-78
2023/07/20 04:37:45;;;;;;;2.88;1.17;;;16.40;99.90;;;;;;5001643;28;20046;-76
2023/07/20 04:40:31;;;;;;;2.10;1.00;;;16.40;99.90;;;;;;5000206;28;20038;-78
2023/07/20 04:43:17;;;;;;;3.67;1.10;;;16.40;99.90;;;;;;4977711;28;20035;-78
2023/07/20 04:46:03;;;;;;;2.13;0.93;;;16.50;99.90;;;;;;4999380;28;20048;-78
2023/07/20 04:48:49;;;;;;;1.83;1.10;;;16.40;99.90;;;;;;4980500;28;20137;-77
2023/07/20 04:51:35;;;;;;;1.98;1.10;;;16.40;99.90;;;;;;4987617;28;20186;-78
2023/07/20 04:54:22;;;;;;;2.45;1.10;;;16.40;99.90;;;;;;5008793;28;20053;-78
2023/07/20 04:57:11;;;;;;;2.78;0.90;;;16.50;99.90;;;;;;4989346;28;20558;-78
2023/07/20 04:59:57;;;;;;;3.60;1.65;;;16.50;99.90;;;;;;4993684;28;20074;-78
2023/07/20 05:02:43;;;;;;;3.30;1.35;;;16.40;99.90;;;;;;4993131;28;20403;-77
2023/07/20 05:05:29;;;;;;;2.50;1.20;;;16.30;99.90;;;;;;4993576;28;20125;-78
2023/07/20 05:08:16;;;;;;;3.50;1.40;;;16.40;99.90;;;;;;4993679;28;20041;-78
2023/07/20 05:11:02;;;;;;;2.90;1.48;;;16.50;99.90;;;;;;4981161;28;20428;-78
2023/07/20 05:13:48;;;;;;;6.03;1.17;;;16.50;99.90;;;;;;4988747;28;20081;-78
2023/07/20 05:16:34;;;;;;;3.03;1.15;;;16.50;99.90;;;;;;4994285;28;20201;-78
2023/07/20 05:19:20;;;;;;;4.05;1.60;;;16.50;99.90;;;;;;4988400;28;20045;-77
2023/07/20 05:22:06;;;;;;;2.65;1.25;;;16.70;99.90;;;;;;4996352;28;20129;-77
2023/07/20 05:24:52;;;;;;;4.95;1.67;;;16.70;99.90;;;;;;4988971;28;20038;-78
2023/07/20 05:27:38;;;;;;;2.35;1.35;;;16.50;99.90;;;;;;4977115;28;20403;-78
2023/07/20 05:30:24;;;;;;;1.98;1.38;;;16.50;99.90;;;;;;4992002;28;20038;-77
2023/07/20 05:33:10;;;;;;;2.95;1.63;;;16.60;99.90;;;;;;4993856;28;20047;-78
2023/07/20 05:35:56;;;;;;;4.45;1.42;;;16.60;99.90;;;;;;4991614;28;20057;-77
2023/07/20 05:38:42;;;;;;;1.83;1.08;;;16.60;99.90;;;;;;4981260;28;20042;-78
2023/07/20 05:41:28;;;;;;;2.80;1.48;;;16.60;99.90;;;;;;4980483;28;20101;-77
2023/07/20 05:44:14;;;;;;;3.13;1.30;;;16.50;99.90;;;;;;4994126;28;20046;-77
2023/07/20 05:47:00;;;;;;;3.92;1.17;;;16.50;99.90;;;;;;4980641;28;20042;-77
2023/07/20 05:49:46;;;;;;;1.73;1.10;;;16.50;99.90;;;;;;4966391;28;20045;-77
2023/07/20 05:52:32;;;;;;;1.70;1.00;;;16.50;99.90;;;;;;4974951;28;20050;-78
2023/07/20 05:55:18;;;;;;;1.92;1.00;;;16.60;99.90;;;;;;4993612;28;20034;-77
2023/07/20 05:58:04;;;;;;;1.63;1.20;;;16.60;99.90;;;;;;4992403;28;20423;-78
2023/07/20 06:00:50;;;;;;;3.45;1.20;;;16.70;99.90;;;;;;4993080;28;20034;-77
2023/07/20 06:03:37;;;;;;;5.05;1.50;;;16.40;99.90;;;;;;4991010;28;20047;-78
2023/07/20 06:06:23;;;;;;;2.80;1.50;;;16.50;99.90;;;;;;4991922;28;20041;-77
2023/07/20 06:09:11;;;;;;;2.08;1.30;;;16.30;99.90;;;;;;4991906;28;20044;-78
2023/07/20 06:11:57;;;;;;;2.35;1.20;;;16.50;99.90;;;;;;4994588;28;20039;-77
2023/07/20 06:14:43;;;;;;;1.83;1.27;;;16.50;99.90;;;;;;4979032;28;20042;-78
2023/07/20 06:17:29;;;;;;;4.82;1.92;;;16.40;99.90;;;;;;4993067;28;20113;-79
2023/07/20 06:20:15;;;;;;;4.60;1.40;;;16.30;99.90;;;;;;4981635;28;20074;-78
2023/07/20 06:23:01;;;;;;;1.85;1.23;;;16.50;99.90;;;;;;4962498;28;20348;-78
2023/07/20 06:25:47;;;;;;;3.65;1.30;;;16.60;99.90;;;;;;4979033;28;20039;-77
2023/07/20 06:28:33;;;;;;;4.18;1.45;;;16.60;99.90;;;;;;4992892;28;20046;-77
2023/07/20 06:31:19;;;;;;;4.85;1.70;;;16.50;99.90;;;;;;4992395;28;20049;-78
2023/07/20 06:34:05;;;;;;;3.42;1.60;;;16.30;99.90;;;;;;4978921;28;20414;-77
2023/07/20 06:36:51;;;;;;;2.83;1.60;;;16.30;99.90;;;;;;4971943;28;20050;-78
2023/07/20 06:39:37;;;;;;;5.15;2.00;;;16.10;99.90;;;;;;4979275;28;20049;-78
2023/07/20 06:42:23;;;;;;;3.83;2.42;;;16.00;99.90;;;;;;4982747;28;20356;-77
2023/07/20 06:45:10;;;;;;;3.30;1.77;;;15.80;99.90;;;;;;4987263;28;20047;-77
2023/07/20 06:47:55;;;;;;;2.60;1.73;;;15.90;99.90;;;;;;4983722;28;20034;-77
2023/07/20 06:50:43;;;;;;;4.00;2.40;;;15.70;99.90;;;;;;4983148;28;20042;-77
2023/07/20 06:53:29;;;;;;;6.10;2.78;;;15.70;99.90;;;;;;4983714;28;20096;-77
2023/07/20 06:56:15;;;;;;;5.07;2.78;;;15.60;99.90;;;;;;4996422;28;20176;-77
2023/07/20 06:59:02;;;;;;;4.07;2.58;;;15.40;99.90;;;;;;4977525;28;20042;-76
2023/07/20 07:01:48;;;;;;;4.78;3.10;;;15.40;99.90;;;;;;4978624;28;20045;-77
2023/07/20 07:04:34;;;;;;;5.75;3.28;;;15.50;99.90;;;;;;5012303;28;20040;-77
2023/07/20 07:07:20;;;;;;;4.75;3.00;;;15.60;99.90;;;;;;4991667;28;20148;-78
2023/07/20 07:10:07;;;;;;;4.03;3.08;;;15.60;99.90;;;;;;4997538;28;20111;-77
2023/07/20 07:12:53;;;;;;;5.78;2.72;;;15.40;99.90;;;;;;4988665;28;20053;-78
2023/07/20 07:15:39;;;;;;;4.85;2.80;;;15.70;99.90;;;;;;5003545;28;20046;-77
2023/07/20 07:18:26;;;;;;;4.78;2.60;;;15.80;99.90;;;;;;4987907;28;20470;-78
2023/07/20 07:21:12;;;;;;;4.03;2.53;;;15.70;99.90;;;;;;4999401;28;20073;-78
2023/07/20 07:23:59;;;;;;;4.53;2.70;;;15.90;99.90;;;;;;4983727;28;20038;-77
2023/07/20 07:26:45;;;;;;;4.25;2.83;;;16.00;99.90;;;;;;4994629;28;20401;-77
2023/07/20 07:29:31;;;;;;;8.35;3.10;;;16.10;99.90;;;;;;5001265;28;20352;-77
2023/07/20 07:32:17;;;;;;;5.57;3.20;;;16.00;99.90;;;;;;5003070;28;20041;-77
2023/07/20 07:35:04;;;;;;;4.05;2.60;;;16.00;99.90;;;;;;4991753;28;20474;-77
2023/07/20 07:37:50;;;;;;;3.28;1.80;;;15.70;99.90;;;;;;5001661;28;20756;-77
2023/07/20 07:40:36;;;;;;;3.80;1.50;;;15.90;99.90;;;;;;4989970;28;20053;-77
2023/07/20 07:43:22;;;;;;;2.15;1.17;;;16.00;99.90;;;;;;4986275;28;20558;-78
2023/07/20 07:46:08;;;;;;;2.03;1.00;;;16.00;99.90;;;;;;5024779;28;20082;-78
2023/07/20 07:48:54;;;;;;;2.60;1.00;;;16.10;99.90;;;;;;5003215;28;20393;-77
2023/07/20 07:51:40;;;;;;;1.25;0.85;;;16.10;99.90;;;;;;4999771;28;20799;-77
2023/07/20 07:54:26;;;;;;;1.27;0.90;;;16.20;99.90;;;;;;5005444;28;20041;-77
2023/07/20 07:57:13;;;;;;;1.95;0.90;;;16.30;99.90;;;;;;5011104;28;20042;-77
2023/07/20 07:59:59;;;;;;;1.38;0.80;;;16.30;99.90;;;;;;4983601;28;20704;-77
2023/07/20 08:02:47;;;;;;;1.00;0.60;;;16.40;99.90;;;;;;5000634;28;20045;-77
2023/07/20 08:05:34;;;;;;;0.90;0.47;;;16.40;99.90;;;;;;5003441;28;20034;-78
2023/07/20 08:08:20;;;;;;;2.28;0.70;;;16.40;99.90;;;;;;4990375;28;20519;-78
2023/07/20 08:11:06;;;;;;;1.33;0.77;;;16.40;99.90;;;;;;4976638;28;20038;-78
2023/07/20 08:13:52;;;;;;;1.67;0.95;;;16.30;99.90;;;;;;4971720;28;20053;-77
2023/07/20 08:16:38;;;;;;;2.08;1.00;;;16.40;99.90;;;;;;4982126;28;20085;-78
2023/07/20 08:19:24;;;;;;;2.28;1.10;;;16.60;99.90;;;;;;4997910;28;20035;-78
2023/07/20 08:22:12;;;;;;;2.10;1.20;;;16.30;99.90;;;;;;4985361;28;20109;-78
2023/07/20 08:24:58;;;;;;;1.60;1.23;;;16.20;99.90;;;;;;4995003;28;20433;-77
2023/07/20 08:27:46;;;;;;;1.40;1.30;;;16.20;99.90;;;;;;4994578;28;20297;-79
2023/07/20 08:30:45;;;;;;;1.13;0.88;;;16.30;99.90;;;;;;4994546;28;20119;-76
2023/07/20 08:33:33;;;;;;;1.00;0.90;;;16.30;99.90;;;;;;4948431;28;20730;-76
2023/07/20 08:36:19;;;;;;;2.67;1.50;;;16.40;99.90;;;;;;4973901;28;20050;-76
2023/07/20 08:39:05;;;;;;;3.78;2.20;;;16.40;99.90;;;;;;4978957;28;20057;-76
2023/07/20 08:41:54;;;;;;;1.70;1.17;;;16.40;99.90;;;;;;4962088;28;20031;-76
2023/07/20 08:44:41;;;;;;;1.55;1.08;;;16.40;99.90;;;;;;4986031;28;20097;-75
2023/07/20 08:47:27;;;;;;;3.38;1.50;;;16.50;99.90;;;;;;4995399;28;20379;-76
2023/07/20 08:50:13;;;;;;;1.20;0.70;;;16.70;99.90;;;;;;4992409;28;20046;-76
2023/07/20 08:52:59;;;;;;;1.88;0.60;;;17.00;99.90;;;;;;4989490;28;20459;-76
2023/07/20 08:55:47;;;;;;;3.05;0.73;;;17.30;99.90;;;;;;4992901;28;20049;-76
2023/07/20 08:58:33;;;;;;;1.42;0.93;;;17.30;99.90;;;;;;4981015;28;20418;-76
2023/07/20 09:01:20;;;;;;;2.35;0.77;;;17.40;99.90;;;;;;5001743;28;20038;-76
2023/07/20 09:04:06;;;;;;;1.95;0.98;;;17.40;99.90;;;;;;4979573;28;20042;-76
2023/07/20 09:06:52;;;;;;;3.05;1.00;;;17.50;99.90;;;;;;4959799;28;20532;-76
2023/07/20 09:09:42;;;;;;;0.93;0.63;;;17.80;99.90;;;;;;4966496;28;20459;-76
2023/07/20 09:12:28;;;;;;;2.08;0.60;;;17.80;99.90;;;;;;4979554;28;20042;-75
2023/07/20 09:15:15;;;;;;;2.78;0.73;;;17.90;99.90;;;;;;4961115;28;20075;-76
2023/07/20 09:18:02;;;;;;;1.33;0.82;;;17.80;99.90;;;;;;4985572;28;20046;-76
2023/07/20 09:20:48;;;;;;;1.17;0.60;;;17.90;99.90;;;;;;4972727;28;20049;-76
2023/07/20 09:23:35;;;;;;;1.65;0.50;;;18.10;99.90;;;;;;4978300;28;20066;-75
2023/07/20 09:26:22;;;;;;;0.65;0.50;;;18.20;99.90;;;;;;4981544;28;20038;-76
2023/07/20 09:29:09;;;;;;;0.95;0.55;;;18.30;99.90;;;;;;4966364;28;20074;-75
2023/07/20 09:32:03;;;;;;;2.03;0.73;;;18.10;99.90;;;;;;4991317;28;20056;-76
2023/07/20 09:34:51;;;;;;;1.20;0.60;;;18.10;99.90;;;;;;4992614;28;20494;-75
2023/07/20 09:37:37;;;;;;;1.23;0.52;;;18.00;99.60;;;;;;4969990;28;20121;-76
2023/07/20 09:40:23;;;;;;;0.90;0.47;;;18.10;99.90;;;;;;4980405;28;20054;-75
2023/07/20 09:43:09;;;;;;;1.08;0.60;;;18.10;98.50;;;;;;4992155;28;20372;-75
2023/07/20 09:45:58;;;;;;;0.57;0.40;;;18.30;98.90;;;;;;4977193;28;20034;-75
2023/07/20 09:48:54;;;;;;;1.33;0.70;;;18.20;98.50;;;;;;4992349;28;20042;-75
2023/07/20 09:51:42;;;;;;;2.70;0.93;;;18.10;98.90;;;;;;4978711;28;20038;-75
2023/07/20 09:54:28;;;;;;;1.25;0.57;;;18.10;98.30;;;;;;4976860;28;20497;-76
2023/07/20 09:57:14;;;;;;;0.77;0.60;;;18.20;98.00;;;;;;4978656;28;20126;-76
2023/07/20 10:00:02;;;;;;;0.60;0.47;;;18.50;98.90;;;;;;4992107;28;20507;-75
2023/07/20 10:02:48;;;;;;;;;;;18.70;98.10;;;;;;4977915;28;20061;-77
2023/07/20 10:05:35;;;;;;;1.20;0.73;;;18.80;98.10;;;;;;4973099;28;19992;-76
2023/07/20 10:08:23;;;;;;;2.63;0.80;;;18.60;97.20;;;;;;4979826;28;20130;-75
2023/07/20 10:11:09;;;;;;;;;;;18.60;97.80;;;;;;4983912;28;20046;-75
2023/07/20 10:13:57;;;;;;;1.52;0.60;;;18.80;97.70;;;;;;4996398;28;20004;-76
2023/07/20 10:16:48;;;;;;;0.90;0.50;;;18.90;95.30;;;;;;4982738;28;20372;-75
2023/07/20 10:19:40;;;;;;;0.88;0.60;;;18.70;93.20;;;;;;4995876;28;20034;-76
2023/07/20 10:22:26;;;;;;;1.17;0.50;;;18.60;93.50;;;;;;4983931;28;20075;-75
2023/07/20 10:25:13;;;;;;;1.15;0.50;;;18.50;93.50;;;;;;4970707;28;20053;-76
2023/07/20 10:27:59;;;;;;;2.45;0.70;;;18.80;94.10;;;;;;4995379;28;20403;-75
2023/07/20 10:30:45;;;;;;;0.85;0.55;;;18.70;94.20;;;;;;4987668;28;20039;-76
2023/07/20 10:33:31;;;;;;;2.63;0.70;;;18.70;94.10;;;;;;4994974;28;20068;-75
2023/07/20 10:36:24;;;;;;;2.80;0.65;;;18.90;93.40;;;;;;4996187;28;20087;-73
2023/07/20 10:39:27;;;;;;;1.90;0.55;;;19.10;92.80;;;;;;4993917;28;20050;-73
2023/07/20 10:42:13;;;;;;;1.02;0.70;;;19.30;93.30;;;;;;4994632;28;20173;-73
2023/07/20 10:45:01;;;;;;;1.35;0.52;;;19.40;92.60;;;;;;4963712;28;20154;-73
2023/07/20 10:47:47;;;;;;;3.10;0.47;;;19.60;92.80;;;;;;4974267;28;20054;-74
2023/07/20 10:50:34;;;;;;;1.85;0.65;;;19.60;93.10;;;;;;4984936;28;20517;-74
2023/07/20 10:53:20;;;;;;;1.00;0.57;;;20.20;93.20;;;;;;4993675;28;20506;-74
2023/07/20 10:56:15;;;;;;;2.95;0.70;;;20.00;90.40;;;;;;4980324;28;20038;-74
2023/07/20 10:59:21;;;;;;;1.65;0.40;;;19.90;91.10;;;;;;4983245;28;20038;-73
2023/07/20 11:02:09;;;;;;;0.63;0.40;;;19.40;91.50;;;;;;4980013;28;20077;-73
2023/07/20 11:04:55;;;;;;;0.68;0.50;;;19.40;91.50;;;;;;4994325;28;20052;-74
2023/07/20 11:07:41;;;;;;;2.10;0.70;;;19.60;91.40;;;;;;4979400;28;20053;-74
2023/07/20 11:10:27;;;;;;;1.08;0.50;;;19.90;91.70;;;;;;4993858;28;20038;-74
2023/07/20 11:13:18;;;;;;;0.85;0.43;;;19.90;91.30;;;;;;4984308;28;20176;-73
2023/07/20 11:16:04;;;;;;;1.35;0.60;;;19.70;90.90;;;;;;5000004;28;20053;-73
2023/07/20 11:18:50;;;;;;;2.05;0.60;;;19.60;91.30;;;;;;4994205;28;20054;-73
2023/07/20 11:21:38;;;;;;;2.53;0.60;;;19.20;91.10;;;;;;4992862;28;20092;-73
2023/07/20 11:24:24;;;;;;;2.95;0.90;;;19.20;91.10;;;;;;4979598;28;20049;-73
2023/07/20 11:27:10;;;;;;;1.90;0.70;;;19.40;91.80;;;;;;4973790;28;20054;-73
2023/07/20 11:29:57;;;;;;;2.38;0.55;;;19.30;91.30;;;;;;4999644;28;20045;-73
2023/07/20 11:32:48;;;;;;;1.40;0.68;;;19.20;91.50;;;;;;4980879;28;20034;-75
2023/07/20 11:35:52;;;;;;;2.40;0.70;;;19.20;91.50;;;;;;5004566;28;20053;-76
2023/07/20 11:38:43;;;;;;;1.73;0.80;;;19.20;91.60;;;;;;4981673;28;20100;-76
2023/07/20 11:41:29;;;;;;;1.05;0.50;;;19.00;91.90;;;;;;4989577;28;20099;-76
2023/07/20 11:44:28;;;;;;;0.65;0.50;;;19.30;91.90;;;;;;4986136;28;20158;-76
2023/07/20 11:47:14;;;;;;;1.65;0.77;;;19.60;91.30;;;;;;4988080;28;20045;-77
2023/07/20 11:50:04;;;;;;;2.20;0.80;;;19.80;91.00;;;;;;5002873;28;20892;-76
2023/07/20 11:52:50;;;;;;;1.70;0.88;;;19.70;90.70;;;;;;5013081;28;20467;-76
2023/07/20 11:55:37;;;;;;;2.55;0.60;;;19.70;90.80;;;;;;4988450;28;20103;-76
2023/07/20 11:58:23;;;;;;;1.80;0.73;;;19.60;90.50;;;;;;5000652;28;20038;-75
2023/07/20 12:01:11;;;;;;;3.03;0.70;;;19.40;91.30;;;;;;4999742;28;20120;-76
2023/07/20 12:03:57;;;;;;;0.98;0.60;;;19.40;91.20;;;;;;4993813;28;20112;-76
2023/07/20 12:06:43;;;;;;;3.03;0.73;;;19.30;91.80;;;;;;4980458;28;20113;-75
2023/07/20 12:09:29;;;;;;;3.03;0.70;;;19.30;91.10;;;;;;4980171;28;20070;-76
2023/07/20 12:12:15;;;;;;;2.65;0.57;;;19.40;91.00;;;;;;4994132;28;20042;-76
2023/07/20 12:15:24;;;;;;;1.15;0.60;;;19.50;90.80;;;;;;4982374;28;20054;-76
2023/07/20 12:18:10;;;;;;;1.42;0.60;;;19.30;90.90;;;;;;4993588;28;20511;-75
2023/07/20 12:20:59;;;;;;;2.17;0.65;;;19.30;90.90;;;;;;4993118;28;20038;-75
2023/07/20 12:23:45;;;;;;;1.77;0.55;;;19.20;90.80;;;;;;4976412;28;20038;-75
2023/07/20 12:26:32;;;;;;;1.13;0.52;;;19.20;91.20;;;;;;4991186;28;20367;-75
2023/07/20 12:29:19;;;;;;;1.92;0.60;;;19.40;91.20;;;;;;4981336;28;20077;-77
2023/07/20 12:32:06;;;;;;;1.77;0.70;;;20.00;91.90;;;;;;4983838;28;20066;-74
2023/07/20 12:34:52;;;;;;;2.53;0.73;;;20.20;90.70;;;;;;4991813;28;20129;-73
2023/07/20 12:37:38;;;;;;;3.60;0.88;;;20.00;90.20;;;;;;4954969;28;20105;-78
2023/07/20 12:40:26;;;;;;;1.40;0.60;;;20.00;90.50;;;;;;4980346;28;20045;-73
2023/07/20 12:43:12;;;;;;;1.53;0.70;;;19.90;90.40;;;;;;4991044;28;20077;-74
2023/07/20 12:45:58;;;;;;;3.30;1.08;;;20.20;90.30;;;;;;4977121;28;20046;-73
2023/07/20 12:48:44;;;;;;;1.73;0.60;;;20.70;89.80;;;;;;4985561;28;20108;-73
2023/07/20 12:51:30;;;;;;;1.20;0.60;;;21.00;88.50;;;;;;4989132;28;20046;-74
2023/07/20 12:54:16;;;;;;;2.08;0.70;;;21.20;85.20;;;;;;4973398;28;20391;-73
2023/07/20 12:57:04;;;;;;;1.40;0.60;;;21.00;85.80;;;;;;4983591;28;20034;-73
2023/07/20 12:59:49;;;;;;;1.50;0.63;;;21.40;86.10;;;;;;4976904;28;20121;-75
2023/07/20 13:02:36;;;;;;;4.18;0.85;;;21.60;84.50;;;;;;4983481;28;20069;-73
2023/07/20 13:05:22;;;;;;;2.67;0.70;;;21.70;83.50;;;;;;4958032;28;20499;-73
2023/07/20 13:08:08;;;;;;;1.50;0.80;;;21.60;81.90;;;;;;4984823;28;20121;-73
2023/07/20 13:10:55;;;;;;;3.65;1.02;;;21.50;83.10;;;;;;4987522;28;20051;-73
2023/07/20 13:13:41;;;;;;;3.40;0.70;;;22.00;82.10;;;;;;4990514;28;20046;-73
2023/07/20 13:16:27;;;;;;;2.20;0.70;;;21.60;81.90;;;;;;4982373;28;20101;-73
2023/07/20 13:19:13;;;;;;;1.45;0.70;;;21.60;80.80;;;;;;4976622;28;20042;-73
2023/07/20 13:21:59;;;;;;;0.90;0.57;;;21.60;79.80;;;;;;4977190;28;20040;-75
2023/07/20 13:24:48;;;;;;;1.70;0.70;;;21.50;80.50;;;;;;4979978;28;20042;-76
2023/07/20 13:27:36;;;;;;;1.65;0.60;;;21.50;80.10;;;;;;4991346;28;20133;-77
2023/07/20 13:30:22;;;;;;;2.25;0.73;;;21.60;77.70;;;;;;4984054;28;20045;-75
2023/07/20 13:33:08;;;;;;;1.25;0.80;;;21.30;78.70;;;;;;4991644;28;20132;-74
2023/07/20 13:35:54;;;;;;;2.00;0.70;;;21.20;78.60;;;;;;4964923;28;20054;-73
2023/07/20 13:38:40;;;;;;;1.70;0.60;;;20.90;79.10;;;;;;4977671;28;20046;-73
2023/07/20 13:41:26;;;;;;;4.28;0.90;;;20.90;80.10;;;;;;4977238;28;20037;-74
2023/07/20 13:44:13;;;;;;;3.50;1.00;;;20.70;80.00;;;;;;4987242;28;20072;-74
2023/07/20 13:47:01;;;;;;;1.40;0.80;;;20.70;81.30;;;;;;4977030;28;20100;-73
2023/07/20 13:49:47;;;;;;;3.72;0.80;;;20.60;81.60;;;;;;4990916;28;20042;-73
2023/07/20 13:52:34;;;;;;;1.38;0.80;;;20.40;82.20;;;;;;4963896;28;20053;-74
2023/07/20 13:55:20;;;;;;;1.92;0.60;;;20.50;82.70;;;;;;4977501;28;20038;-75
2023/07/20 13:58:05;;;;;;;1.90;0.80;;;20.80;82.20;;;;;;4977560;28;20053;-73
2023/07/20 14:00:51;;;;;;;1.80;0.73;;;20.50;81.70;;;;;;4991369;28;20081;-74
2023/07/20 14:03:37;;;;;;;1.95;0.60;;;20.40;83.70;;;;;;4975609;28;20085;-73
2023/07/20 14:06:23;;;;;;;1.35;0.70;;;20.40;84.00;;;;;;4940210;29;20039;-73
2023/07/20 14:09:11;;;;;;;2.20;0.60;;;20.30;84.40;;;;;;4953442;28;20133;-73
2023/07/20 14:11:56;;;;;;;4.13;0.70;;;20.40;85.40;;;;;;4953566;28;20046;-74
2023/07/20 14:14:42;;;;;;;2.55;0.80;;;20.50;85.20;;;;;;4972167;28;20077;-74
2023/07/20 14:17:28;;;;;;;2.70;0.80;;;20.90;85.80;;;;;;4958359;28;20678;-74
2023/07/20 14:20:14;;;;;;;2.63;0.90;;;21.30;82.40;;;;;;4972714;28;20077;-74
2023/07/20 14:23:02;;;;;;;1.13;0.70;;;21.70;81.90;;;;;;4946423;28;20083;-74
2023/07/20 14:25:48;;;;;;;1.55;0.88;;;22.00;77.00;;;;;;4954851;28;20065;-74
2023/07/20 14:28:34;;;;;;;1.75;0.70;;;21.70;78.00;;;;;;4957604;28;20042;-75
2023/07/20 14:31:20;;;;;;;1.33;0.60;;;21.40;77.10;;;;;;4962258;28;20047;-73